Time;durP1;ratioP1;P1;durP2;ratioP2;P2;SDS_P1;SDS_P2;PMS_P1;PMS_P2;Temp;Humidity;BMP_temperature;BMP_pressure;BME280_temperature;BME280_humidity;BME280_pressure;Samples;Min_cycle;Max_cycle;Signal;HPM_P1;HPM_P2
2022/11/09 00:02:35;;;;;;;6.70;3.25;;;5.40;99.90;;;;;;8351792;28;20628;-85
2022/11/09 00:06:35;;;;;;;4.22;2.88;;;5.40;99.90;;;;;;8356892;28;20026;-85
2022/11/09 00:10:36;;;;;;;5.40;3.08;;;5.40;99.90;;;;;;8346487;28;20029;-85
2022/11/09 00:14:37;;;;;;;5.03;2.95;;;5.50;99.90;;;;;;8361540;28;20025;-84
2022/11/09 00:18:38;;;;;;;4.95;3.38;;;5.50;99.90;;;;;;8361667;28;20063;-85
2022/11/09 00:22:39;;;;;;;4.47;3.17;;;5.40;99.90;;;;;;8348581;28;20419;-84
2022/11/09 00:26:42;;;;;;;6.45;3.03;;;5.50;99.90;;;;;;8363436;28;20492;-84
2022/11/09 00:30:42;;;;;;;6.38;3.47;;;5.50;99.90;;;;;;8356334;28;20025;-85
2022/11/09 00:34:51;;;;;;;4.68;3.25;;;5.50;99.90;;;;;;8373364;28;20032;-85
2022/11/09 00:38:57;;;;;;;6.38;3.10;;;5.70;99.90;;;;;;8354095;28;20022;-84
2022/11/09 00:42:57;;;;;;;5.80;3.22;;;5.60;99.90;;;;;;8339627;28;20029;-85
2022/11/09 00:46:58;;;;;;;5.88;2.90;;;5.60;99.90;;;;;;8337956;28;20062;-85
2022/11/09 00:50:59;;;;;;;5.75;3.28;;;5.60;99.90;;;;;;8347286;28;20017;-85
2022/11/09 00:54:59;;;;;;;4.88;2.90;;;5.60;99.90;;;;;;8361249;28;20028;-85
2022/11/09 00:59:12;;;;;;;3.85;2.70;;;5.50;99.90;;;;;;8347767;28;20116;-85
2022/11/09 01:03:13;;;;;;;3.97;2.72;;;5.40;99.90;;;;;;8348302;28;20024;-85
2022/11/09 01:07:14;;;;;;;6.57;3.10;;;5.50;99.90;;;;;;8348070;28;20025;-85
2022/11/09 01:11:16;;;;;;;4.60;2.70;;;5.40;99.90;;;;;;8344804;28;20052;-85
2022/11/09 01:15:16;;;;;;;4.90;2.70;;;5.30;99.90;;;;;;8358607;28;20056;-86
2022/11/09 01:19:17;;;;;;;4.50;2.72;;;5.20;99.90;;;;;;8355200;28;20025;-85
2022/11/09 01:23:18;;;;;;;4.97;2.58;;;5.10;99.90;;;;;;8346122;28;20385;-85
2022/11/09 01:27:19;;;;;;;4.93;2.72;;;5.00;99.90;;;;;;8359777;28;20063;-85
2022/11/09 01:31:20;;;;;;;4.68;2.50;;;5.00;99.90;;;;;;8338506;28;20021;-85
2022/11/09 01:35:21;;;;;;;5.30;2.92;;;5.10;99.90;;;;;;8344377;28;20036;-85
2022/11/09 01:39:22;;;;;;;6.30;2.67;;;5.10;99.90;;;;;;8356697;28;20400;-85
2022/11/09 01:43:34;;;;;;;3.78;2.30;;;5.10;99.90;;;;;;8349748;28;20526;-85
2022/11/09 01:47:35;;;;;;;3.95;2.72;;;5.20;99.90;;;;;;8352015;28;20053;-84
2022/11/09 01:51:58;;;;;;;3.38;2.42;;;5.00;99.90;;;;;;8330396;28;20048;-85
2022/11/09 01:56:03;;;;;;;6.35;2.80;;;5.00;99.90;;;;;;8355289;28;20382;-85
2022/11/09 02:00:15;;;;;;;3.47;2.58;;;4.90;99.90;;;;;;8355194;28;20495;-85
2022/11/09 02:04:30;;;;;;;6.18;2.88;;;4.90;99.90;;;;;;8343866;28;20420;-85
2022/11/09 02:08:31;;;;;;;4.95;3.05;;;4.90;99.90;;;;;;8337415;28;20025;-85
2022/11/09 02:12:34;;;;;;;3.47;2.25;;;4.90;99.90;;;;;;8343711;28;20022;-85
2022/11/09 02:16:36;;;;;;;4.55;2.67;;;4.90;99.90;;;;;;8350334;28;20025;-85
2022/11/09 02:20:51;;;;;;;4.40;2.90;;;4.90;99.90;;;;;;8351003;28;20055;-85
2022/11/09 02:24:52;;;;;;;4.03;2.70;;;4.80;99.90;;;;;;8352995;28;20036;-85
2022/11/09 02:29:22;;;;;;;4.45;2.58;;;4.70;99.90;;;;;;8349693;28;20017;-84
2022/11/09 02:33:23;;;;;;;8.30;2.65;;;4.80;99.90;;;;;;8341606;28;20048;-84
2022/11/09 02:37:50;;;;;;;5.20;2.65;;;4.70;99.90;;;;;;8349369;28;20029;-85
2022/11/09 02:42:14;;;;;;;5.55;2.50;;;4.60;99.90;;;;;;8332239;28;20029;-85
2022/11/09 02:46:24;;;;;;;5.70;2.85;;;4.50;99.90;;;;;;8347345;28;20106;-84
2022/11/09 02:50:24;;;;;;;3.83;2.72;;;4.50;99.90;;;;;;8351168;28;20226;-84
2022/11/09 02:54:34;;;;;;;5.93;2.72;;;4.40;99.90;;;;;;8358989;28;20082;-84
2022/11/09 02:58:43;;;;;;;3.88;2.65;;;4.50;99.90;;;;;;8350338;28;20036;-85
2022/11/09 03:02:44;;;;;;;3.53;2.70;;;4.60;99.90;;;;;;8345439;28;20616;-84
2022/11/09 03:06:44;;;;;;;5.13;2.67;;;4.50;99.90;;;;;;8358943;28;20056;-84
2022/11/09 03:10:45;;;;;;;4.40;2.10;;;4.60;99.90;;;;;;8350863;28;20031;-85
2022/11/09 03:14:49;;;;;;;6.40;2.28;;;4.70;99.90;;;;;;8350507;28;20025;-84
2022/11/09 03:19:00;;;;;;;;;;;;;;;;;;;;;
2022/11/09 03:23:12;;;;;;;4.43;2.80;;;4.70;99.90;;;;;;8356369;28;20056;-85
2022/11/09 03:27:12;;;;;;;;;;;4.50;99.90;;;;;;8359126;28;20104;-85
2022/11/09 03:31:16;;;;;;;4.00;2.42;;;4.40;99.90;;;;;;8343288;28;19951;-84
2022/11/09 03:35:17;;;;;;;3.85;2.33;;;4.30;99.90;;;;;;8362937;28;20511;-84
2022/11/09 03:39:52;;;;;;;3.45;2.17;;;4.30;99.90;;;;;;8346915;28;20037;-84
2022/11/09 03:43:53;;;;;;;3.35;2.10;;;4.40;99.90;;;;;;8330896;28;20031;-84
2022/11/09 03:47:58;;;;;;;4.60;2.45;;;4.20;99.90;;;;;;8342125;28;20021;-85
2022/11/09 03:51:59;;;;;;;4.35;2.40;;;4.40;99.90;;;;;;8350452;28;20021;-84
2022/11/09 03:56:00;;;;;;;4.72;2.80;;;4.50;99.90;;;;;;8364029;28;20044;-85
2022/11/09 04:00:00;;;;;;;2.80;2.30;;;4.60;99.90;;;;;;8355661;28;20599;-84
2022/11/09 04:08:40;;;;;;;3.38;2.10;;;4.80;99.90;;;;;;8354681;28;20028;-84
2022/11/09 04:12:47;;;;;;;4.13;2.25;;;5.10;99.90;;;;;;8349701;28;20044;-84
2022/11/09 04:16:48;;;;;;;4.20;2.30;;;5.10;99.90;;;;;;8353028;28;20543;-84
2022/11/09 04:20:58;;;;;;;3.90;2.20;;;5.30;99.90;;;;;;8353777;28;20021;-84
2022/11/09 04:24:58;;;;;;;3.15;2.25;;;5.30;99.90;;;;;;8362161;28;20420;-84
2022/11/09 04:28:59;;;;;;;3.95;2.63;;;5.30;99.90;;;;;;8362611;28;20025;-84
2022/11/09 04:33:00;;;;;;;4.22;2.67;;;5.30;99.90;;;;;;8357834;28;20033;-85
2022/11/09 04:37:01;;;;;;;3.53;1.83;;;5.30;99.90;;;;;;8360072;28;20032;-84
2022/11/09 04:41:38;;;;;;;2.83;2.00;;;5.60;99.90;;;;;;8356495;28;20072;-84
2022/11/09 04:45:39;;;;;;;3.35;2.08;;;5.70;99.90;;;;;;8333497;28;20409;-85
2022/11/09 04:49:39;;;;;;;3.95;2.35;;;5.90;99.90;;;;;;8354471;28;20025;-84
2022/11/09 04:53:40;;;;;;;2.25;1.92;;;6.00;99.90;;;;;;8354133;28;20033;-85
2022/11/09 04:57:40;;;;;;;2.75;1.67;;;6.00;99.90;;;;;;8355166;28;20482;-85
2022/11/09 05:01:41;;;;;;;3.67;2.00;;;6.10;99.90;;;;;;8346886;28;20030;-85
2022/11/09 05:05:41;;;;;;;3.45;1.83;;;6.00;99.90;;;;;;8342984;28;20025;-85
2022/11/09 05:09:42;;;;;;;2.13;1.70;;;6.10;99.90;;;;;;8355466;28;20110;-85
2022/11/09 05:13:42;;;;;;;3.25;1.80;;;6.10;99.90;;;;;;8356347;28;20029;-84
2022/11/09 05:17:43;;;;;;;1.80;1.60;;;6.20;99.90;;;;;;8356009;28;20032;-85
2022/11/09 05:21:44;;;;;;;3.50;1.70;;;6.20;99.90;;;;;;8340692;28;20036;-85
2022/11/09 05:25:45;;;;;;;2.53;1.60;;;6.30;99.90;;;;;;8356523;28;20086;-84
2022/11/09 05:29:45;;;;;;;3.33;1.98;;;6.70;99.90;;;;;;8333445;28;20029;-84
2022/11/09 05:33:50;;;;;;;2.47;1.80;;;6.40;99.90;;;;;;8348016;28;20507;-84
2022/11/09 05:37:51;;;;;;;1.98;1.75;;;6.20;99.90;;;;;;8351788;28;20073;-85
2022/11/09 05:41:51;;;;;;;2.85;1.65;;;6.10;99.90;;;;;;8348976;28;20032;-85
2022/11/09 05:45:52;;;;;;;3.00;1.90;;;6.00;99.90;;;;;;8346935;28;20029;-85
2022/11/09 05:49:52;;;;;;;3.67;1.92;;;5.70;99.90;;;;;;8343501;28;20027;-85
2022/11/09 05:53:53;;;;;;;2.65;1.77;;;5.50;99.90;;;;;;8351036;28;20029;-85
2022/11/09 05:57:54;;;;;;;2.35;1.85;;;5.40;99.90;;;;;;8340141;28;20603;-85
2022/11/09 06:01:54;;;;;;;5.00;2.55;;;5.40;99.90;;;;;;8341928;28;20055;-85
2022/11/09 06:06:00;;;;;;;4.18;3.17;;;5.40;99.90;;;;;;8347707;28;20034;-84
2022/11/09 06:10:00;;;;;;;3.10;2.75;;;5.50;99.90;;;;;;8356665;28;20031;-85
2022/11/09 06:14:01;;;;;;;3.95;3.03;;;5.60;99.90;;;;;;8360385;28;20035;-85
2022/11/09 06:18:02;;;;;;;3.05;2.10;;;5.70;99.90;;;;;;8352435;28;20025;-85
2022/11/09 06:22:02;;;;;;;3.65;2.13;;;5.80;99.90;;;;;;8349131;28;20433;-85
2022/11/09 06:26:06;;;;;;;2.72;1.88;;;5.90;99.90;;;;;;8349202;28;20065;-85
2022/11/09 06:30:07;;;;;;;3.65;2.85;;;6.00;99.90;;;;;;8341034;28;20026;-85
2022/11/09 06:34:09;;;;;;;3.63;2.88;;;6.10;99.90;;;;;;8357685;28;20032;-85
2022/11/09 06:38:12;;;;;;;4.95;3.03;;;6.10;99.90;;;;;;8359454;28;20021;-85
2022/11/09 06:42:12;;;;;;;5.63;3.80;;;6.20;99.90;;;;;;8345662;28;20432;-85
2022/11/09 06:46:16;;;;;;;6.28;3.30;;;6.60;99.90;;;;;;8342116;28;20086;-84
2022/11/09 06:50:16;;;;;;;7.13;3.97;;;6.80;99.90;;;;;;8347241;28;20043;-85
2022/11/09 06:54:17;;;;;;;7.15;3.97;;;6.90;99.90;;;;;;8364771;28;20029;-84
2022/11/09 06:58:18;;;;;;;6.85;4.28;;;6.80;99.90;;;;;;8365677;28;20587;-85
2022/11/09 07:02:19;;;;;;;6.18;3.90;;;6.80;99.90;;;;;;8356070;28;20025;-85
2022/11/09 07:06:19;;;;;;;5.63;3.47;;;6.90;99.90;;;;;;8342677;28;20029;-84
2022/11/09 07:10:20;;;;;;;4.00;3.08;;;7.40;99.90;;;;;;8357274;28;20021;-84
2022/11/09 07:14:21;;;;;;;6.15;3.22;;;7.30;99.90;;;;;;8355332;28;20033;-84
2022/11/09 07:18:21;;;;;;;6.38;4.20;;;7.30;99.90;;;;;;8357242;28;20036;-84
2022/11/09 07:22:22;;;;;;;7.28;4.03;;;7.50;99.90;;;;;;8356739;28;20115;-84
2022/11/09 07:26:23;;;;;;;6.28;3.88;;;7.60;99.90;;;;;;8363276;28;20079;-84
2022/11/09 07:30:23;;;;;;;6.32;3.83;;;7.60;99.90;;;;;;8350680;28;20416;-84
2022/11/09 07:34:24;;;;;;;5.47;4.03;;;7.50;99.90;;;;;;8358714;28;20471;-84
2022/11/09 07:38:25;;;;;;;6.75;4.88;;;7.60;99.90;;;;;;8353923;28;20064;-84
2022/11/09 07:42:25;;;;;;;10.40;5.30;;;7.80;99.90;;;;;;8355764;28;20052;-85
2022/11/09 07:46:26;;;;;;;10.77;4.97;;;8.00;99.90;;;;;;8358334;28;20111;-85
2022/11/09 07:50:28;;;;;;;6.30;4.07;;;8.10;99.90;;;;;;8341716;28;20559;-84
2022/11/09 07:54:29;;;;;;;2.38;2.00;;;8.50;99.90;;;;;;8347603;28;20602;-84
2022/11/09 07:58:30;;;;;;;5.82;3.72;;;9.00;99.90;;;;;;8363500;28;20021;-84
2022/11/09 08:02:31;;;;;;;2.63;1.92;;;9.50;99.90;;;;;;8345532;28;20079;-84
2022/11/09 08:06:32;;;;;;;3.95;1.90;;;9.90;99.90;;;;;;8347398;28;20432;-83
2022/11/09 08:10:34;;;;;;;2.45;1.80;;;10.20;99.90;;;;;;8340742;28;20075;-83
2022/11/09 08:14:35;;;;;;;3.88;2.13;;;10.40;99.90;;;;;;8346329;28;20036;-83
2022/11/09 08:18:35;;;;;;;4.13;2.15;;;10.40;99.90;;;;;;8362551;28;20029;-83
2022/11/09 08:22:43;;;;;;;3.40;2.08;;;10.40;99.90;;;;;;8343504;28;20044;-82
2022/11/09 08:26:44;;;;;;;21.95;9.90;;;10.60;99.90;;;;;;8339571;28;20547;-80
2022/11/09 08:30:45;;;;;;;24.73;12.32;;;10.40;99.90;;;;;;8346242;28;20033;-82
2022/11/09 08:34:47;;;;;;;9.27;4.05;;;10.40;99.90;;;;;;8350632;28;20071;-81
2022/11/09 08:38:47;;;;;;;3.75;2.13;;;10.40;99.90;;;;;;8347221;28;20026;-82
2022/11/09 08:42:49;;;;;;;3.20;1.90;;;10.30;99.90;;;;;;8331959;28;20057;-83
2022/11/09 08:46:49;;;;;;;3.08;1.50;;;10.40;99.90;;;;;;8341732;28;20473;-83
2022/11/09 08:50:52;;;;;;;4.63;2.40;;;10.40;99.90;;;;;;8340977;28;20060;-83
2022/11/09 08:54:52;;;;;;;5.28;2.10;;;10.50;99.90;;;;;;8342012;28;20024;-83
2022/11/09 08:58:53;;;;;;;3.17;2.15;;;10.30;99.90;;;;;;8360152;28;20038;-83
2022/11/09 09:02:53;;;;;;;3.72;2.30;;;10.30;99.90;;;;;;8349417;28;20086;-83
2022/11/09 09:06:54;;;;;;;4.88;2.40;;;10.50;99.90;;;;;;8355970;28;20021;-83
2022/11/09 09:10:54;;;;;;;2.83;2.20;;;10.70;99.90;;;;;;8345525;28;20029;-83
2022/11/09 09:14:55;;;;;;;2.97;1.83;;;10.80;99.90;;;;;;8347649;28;20024;-83
2022/11/09 09:18:55;;;;;;;5.75;2.55;;;10.80;99.90;;;;;;8343911;28;20021;-82
2022/11/09 09:23:00;;;;;;;4.32;2.72;;;10.90;99.90;;;;;;8351988;28;21303;-83
2022/11/09 09:27:01;;;;;;;5.32;2.95;;;11.00;99.90;;;;;;8357322;28;20108;-83
2022/11/09 09:31:03;;;;;;;5.63;2.13;;;11.30;99.90;;;;;;8342089;28;20107;-83
2022/11/09 09:35:04;;;;;;;3.28;2.40;;;11.50;99.90;;;;;;8348515;28;20027;-83
2022/11/09 09:39:05;;;;;;;2.95;2.30;;;11.90;99.90;;;;;;8345008;28;20087;-83
2022/11/09 09:43:10;;;;;;;4.35;2.50;;;12.20;99.90;;;;;;8343666;28;20029;-83
2022/11/09 09:47:18;;;;;;;4.30;2.60;;;12.40;99.90;;;;;;8360410;28;20056;-84
2022/11/09 09:51:41;;;;;;;4.30;2.63;;;12.80;99.90;;;;;;8347602;28;20025;-85
2022/11/09 09:55:46;;;;;;;4.30;2.05;;;13.10;99.90;;;;;;8354565;28;20060;-85
2022/11/09 09:59:53;;;;;;;5.63;2.45;;;13.40;99.90;;;;;;8358722;28;20025;-85
2022/11/09 10:03:55;;;;;;;5.00;2.80;;;13.30;99.90;;;;;;8356288;28;20078;-85
2022/11/09 10:08:34;;;;;;;3.38;2.40;;;13.40;99.90;;;;;;8356598;28;20497;-84
2022/11/09 10:13:08;;;;;;;3.00;1.90;;;13.70;99.90;;;;;;8366305;28;20029;-84
2022/11/09 10:17:14;;;;;;;3.45;1.90;;;13.90;99.90;;;;;;8361879;28;20025;-85
2022/11/09 10:21:41;;;;;;;3.22;1.92;;;14.00;99.90;;;;;;8367947;28;20025;-85
2022/11/09 10:25:45;;;;;;;3.10;2.08;;;14.00;99.90;;;;;;8357654;28;20116;-85
2022/11/09 10:29:49;;;;;;;2.92;2.10;;;13.80;99.90;;;;;;8366442;28;20021;-85
2022/11/09 10:33:56;;;;;;;3.50;1.77;;;13.90;99.90;;;;;;8353198;28;20030;-85
2022/11/09 10:37:57;;;;;;;2.40;1.90;;;13.80;99.90;;;;;;8357062;28;20112;-85
2022/11/09 10:41:58;;;;;;;3.88;2.15;;;13.90;99.90;;;;;;8364748;28;20055;-85
2022/11/09 10:46:05;;;;;;;5.28;2.20;;;14.10;99.90;;;;;;8360441;28;20084;-85
2022/11/09 10:50:26;;;;;;;2.42;1.98;;;14.30;99.90;;;;;;8351601;28;20497;-85
2022/11/09 10:54:33;;;;;;;2.40;1.80;;;14.60;99.90;;;;;;8365434;28;20102;-85
2022/11/09 10:58:36;;;;;;;3.13;2.05;;;14.70;99.90;;;;;;8371092;28;20083;-84
2022/11/09 11:02:45;;;;;;;4.13;1.60;;;14.90;99.90;;;;;;8341759;28;20049;-83
2022/11/09 11:06:46;;;;;;;2.70;1.60;;;15.20;99.90;;;;;;8357726;28;20029;-85
2022/11/09 11:10:46;;;;;;;2.35;1.58;;;15.20;99.90;;;;;;8350167;28;20029;-85
2022/11/09 11:14:47;;;;;;;3.28;1.80;;;15.10;99.90;;;;;;8372485;28;20032;-85
2022/11/09 11:18:47;;;;;;;2.70;1.75;;;15.20;99.90;;;;;;8356071;28;20025;-85
2022/11/09 11:22:48;;;;;;;3.67;1.60;;;15.20;99.90;;;;;;8354435;28;20045;-84
2022/11/09 11:27:20;;;;;;;2.83;1.80;;;15.30;99.90;;;;;;8343798;28;20029;-85
2022/11/09 11:31:21;;;;;;;2.13;1.50;;;15.20;99.90;;;;;;8353885;28;20102;-84
2022/11/09 11:35:37;;;;;;;4.93;2.10;;;15.30;99.90;;;;;;8356451;28;20029;-84
2022/11/09 11:40:00;;;;;;;4.05;1.98;;;15.40;99.90;;;;;;8349010;28;20017;-84
2022/11/09 11:44:19;;;;;;;2.53;1.50;;;15.70;99.90;;;;;;8355106;28;20029;-84
2022/11/09 11:48:38;;;;;;;2.72;1.70;;;15.60;99.90;;;;;;8356145;28;20029;-85
2022/11/09 11:52:51;;;;;;;2.85;1.80;;;15.40;99.90;;;;;;8342857;28;20136;-84
2022/11/09 11:57:15;;;;;;;2.47;1.52;;;15.20;99.90;;;;;;8349003;28;20021;-85
2022/11/09 12:01:21;;;;;;;2.92;1.67;;;15.50;99.90;;;;;;8333918;28;20021;-84
2022/11/09 12:05:28;;;;;;;1.80;1.38;;;15.50;99.90;;;;;;8347118;28;20021;-84
2022/11/09 12:09:46;;;;;;;2.60;1.60;;;15.60;99.90;;;;;;8347779;28;20108;-84
2022/11/09 12:13:59;;;;;;;2.00;1.40;;;15.50;99.90;;;;;;8348446;28;20473;-85
2022/11/09 12:18:05;;;;;;;1.85;1.20;;;15.50;99.90;;;;;;8353370;28;20029;-85
2022/11/09 12:22:19;;;;;;;2.63;1.65;;;15.80;99.90;;;;;;8348027;28;20032;-85
2022/11/09 12:26:41;;;;;;;2.08;1.33;;;15.70;99.90;;;;;;8350353;28;20025;-85
2022/11/09 12:31:21;;;;;;;2.95;1.70;;;15.80;99.90;;;;;;8353296;28;20017;-85
2022/11/09 12:35:21;;;;;;;2.38;1.35;;;16.20;99.90;;;;;;8352795;28;20032;-84
2022/11/09 12:39:45;;;;;;;1.88;1.55;;;16.00;99.90;;;;;;8344038;28;20032;-85
2022/11/09 12:43:59;;;;;;;2.42;1.60;;;15.90;99.90;;;;;;8348668;28;20041;-84
2022/11/09 12:48:15;;;;;;;3.17;1.63;;;16.00;99.90;;;;;;8354148;28;20013;-85
2022/11/09 12:52:19;;;;;;;3.03;1.77;;;16.20;99.90;;;;;;8347398;28;20116;-85
2022/11/09 12:56:31;;;;;;;2.47;1.30;;;16.20;99.90;;;;;;8334549;28;20101;-84
2022/11/09 13:00:31;;;;;;;1.52;1.15;;;16.20;99.90;;;;;;8347256;28;20025;-84
2022/11/09 13:04:32;;;;;;;1.67;0.90;;;16.20;99.90;;;;;;8345214;28;20103;-84
2022/11/09 13:08:33;;;;;;;1.92;1.10;;;15.90;99.90;;;;;;8359669;28;20017;-82
2022/11/09 13:12:38;;;;;;;1.38;1.10;;;15.70;99.90;;;;;;8361395;28;20025;-84
2022/11/09 13:16:38;;;;;;;1.23;0.90;;;15.40;99.90;;;;;;8354885;28;20025;-84
2022/11/09 13:20:41;;;;;;;2.38;1.15;;;15.40;99.90;;;;;;8360806;28;20033;-84
2022/11/09 13:24:58;;;;;;;2.05;1.40;;;15.50;99.90;;;;;;8365081;28;20036;-84
2022/11/09 13:29:15;;;;;;;2.78;1.30;;;15.30;99.90;;;;;;8346689;28;20048;-84
2022/11/09 13:33:21;;;;;;;1.90;1.33;;;15.30;99.90;;;;;;8342892;28;20064;-84
2022/11/09 13:37:55;;;;;;;2.20;1.38;;;15.10;99.90;;;;;;8343367;28;20029;-84
2022/11/09 13:41:56;;;;;;;2.60;1.63;;;14.90;99.90;;;;;;8331811;28;20048;-84
2022/11/09 13:46:02;;;;;;;5.00;1.58;;;15.00;99.90;;;;;;8336772;28;20021;-84
2022/11/09 13:50:15;;;;;;;2.60;1.65;;;15.10;99.90;;;;;;8349205;28;20037;-85
2022/11/09 13:54:36;;;;;;;3.67;1.33;;;14.90;99.90;;;;;;8351027;28;20031;-84
2022/11/09 13:58:39;;;;;;;2.92;1.70;;;14.70;99.90;;;;;;8332124;28;20030;-84
2022/11/09 14:02:40;;;;;;;4.45;1.70;;;14.40;99.90;;;;;;8340597;28;20025;-84
2022/11/09 14:06:40;;;;;;;2.90;1.80;;;14.30;99.90;;;;;;8351994;28;20473;-85
2022/11/09 14:10:45;;;;;;;2.95;1.63;;;14.00;99.90;;;;;;8346070;28;20063;-85
2022/11/09 14:15:12;;;;;;;2.75;1.50;;;14.10;99.90;;;;;;8344712;28;20025;-84
2022/11/09 14:19:20;;;;;;;2.58;1.73;;;13.80;99.90;;;;;;8354752;28;20040;-85
2022/11/09 14:23:27;;;;;;;4.38;2.03;;;13.30;99.90;;;;;;8358359;28;20029;-85
2022/11/09 14:27:27;;;;;;;4.15;2.28;;;13.00;99.90;;;;;;8345694;28;20840;-84
2022/11/09 14:31:32;;;;;;;4.78;2.38;;;12.80;99.90;;;;;;8343997;28;20033;-84
2022/11/09 14:35:34;;;;;;;4.30;2.70;;;12.70;99.90;;;;;;8341057;28;20396;-84
2022/11/09 14:39:36;;;;;;;3.85;1.95;;;12.60;99.90;;;;;;8286610;28;20092;-84
2022/11/09 14:43:44;;;;;;;3.17;2.25;;;12.70;99.90;;;;;;8334980;28;20040;-84
2022/11/09 14:47:47;;;;;;;4.18;2.60;;;12.50;99.90;;;;;;8345181;28;20030;-84
2022/11/09 14:51:49;;;;;;;3.03;2.30;;;12.60;99.90;;;;;;8351745;28;20021;-82
2022/11/09 14:55:52;;;;;;;4.88;2.60;;;12.50;99.90;;;;;;8348935;28;20029;-83
2022/11/09 14:59:53;;;;;;;2.90;2.40;;;12.30;99.90;;;;;;8357038;28;20025;-82
2022/11/09 15:04:10;;;;;;;4.47;2.35;;;12.10;99.90;;;;;;8361772;28;20081;-84
2022/11/09 15:08:18;;;;;;;3.42;2.40;;;11.90;99.90;;;;;;8351179;28;20568;-83
2022/11/09 15:12:20;;;;;;;3.78;2.65;;;11.70;99.90;;;;;;8359714;28;20389;-84
2022/11/09 15:16:25;;;;;;;3.20;2.30;;;11.80;99.90;;;;;;8340111;28;20032;-83
2022/11/09 15:20:30;;;;;;;5.03;3.47;;;11.70;99.90;;;;;;8357631;28;20092;-83
2022/11/09 15:24:46;;;;;;;5.05;3.58;;;11.60;99.90;;;;;;8346064;28;20378;-83
2022/11/09 15:28:47;;;;;;;7.68;5.88;;;11.40;99.90;;;;;;8355184;28;20512;-84
2022/11/09 15:32:48;;;;;;;5.95;2.90;;;11.40;99.90;;;;;;8355582;28;20025;-84
2022/11/09 15:36:53;;;;;;;8.15;4.97;;;11.40;99.90;;;;;;8338830;28;20669;-84
2022/11/09 15:40:54;;;;;;;4.70;3.38;;;11.80;99.90;;;;;;8365141;28;20025;-84
2022/11/09 15:44:57;;;;;;;7.50;2.97;;;11.80;99.90;;;;;;8344318;28;20021;-84
2022/11/09 15:49:05;;;;;;;6.85;4.32;;;11.50;99.90;;;;;;8356912;28;20147;-83
2022/11/09 15:53:07;;;;;;;8.30;5.60;;;11.20;99.90;;;;;;8348926;28;20086;-84
2022/11/09 15:57:17;;;;;;;12.52;8.50;;;11.00;99.90;;;;;;8351617;28;20032;-83
2022/11/09 16:01:18;;;;;;;11.07;6.80;;;10.80;99.90;;;;;;8362819;28;20028;-84
2022/11/09 16:05:18;;;;;;;12.05;7.75;;;10.70;99.90;;;;;;8342379;28;20283;-84
2022/11/09 16:09:19;;;;;;;7.82;6.07;;;10.70;99.90;;;;;;8344282;28;20113;-83
2022/11/09 16:13:19;;;;;;;14.63;7.00;;;10.60;99.90;;;;;;8348834;28;20100;-84
2022/11/09 16:17:20;;;;;;;15.10;7.15;;;10.70;99.90;;;;;;8348606;28;20029;-84
2022/11/09 16:21:21;;;;;;;9.80;6.18;;;10.60;99.90;;;;;;8348915;28;20500;-84
2022/11/09 16:25:21;;;;;;;14.38;9.13;;;10.60;99.90;;;;;;8361885;28;20108;-85
2022/11/09 16:29:26;;;;;;;11.45;5.93;;;10.70;99.90;;;;;;8348907;28;20025;-84
2022/11/09 16:33:26;;;;;;;14.52;9.25;;;10.60;99.90;;;;;;8336455;28;20034;-84
2022/11/09 16:37:30;;;;;;;14.68;9.38;;;10.60;99.90;;;;;;8337397;28;20404;-84
2022/11/09 16:41:31;;;;;;;18.85;11.93;;;10.60;99.90;;;;;;8357947;28;20025;-84
2022/11/09 16:45:32;;;;;;;24.77;12.23;;;10.60;99.90;;;;;;8346602;28;20022;-84
2022/11/09 16:49:33;;;;;;;32.80;17.27;;;10.70;99.90;;;;;;8342894;28;20048;-84
2022/11/09 16:53:33;;;;;;;15.98;9.63;;;10.60;99.90;;;;;;8344215;28;20493;-84
2022/11/09 16:57:34;;;;;;;17.90;9.52;;;10.50;99.90;;;;;;8339030;28;20089;-82
2022/11/09 17:01:35;;;;;;;9.90;5.30;;;10.60;99.90;;;;;;8352628;28;20029;-84
2022/11/09 17:05:36;;;;;;;6.93;5.30;;;10.60;99.90;;;;;;8344824;28;20037;-84
2022/11/09 17:09:36;;;;;;;9.77;5.72;;;10.60;99.90;;;;;;8357530;28;20527;-84
2022/11/09 17:13:37;;;;;;;13.68;7.95;;;10.60;99.90;;;;;;8359619;28;20039;-84
2022/11/09 17:17:38;;;;;;;10.05;5.78;;;10.70;99.90;;;;;;8340688;28;20155;-84
2022/11/09 17:21:39;;;;;;;7.80;4.82;;;10.60;99.90;;;;;;8359931;28;20025;-83
2022/11/09 17:25:39;;;;;;;5.78;4.35;;;10.60;99.90;;;;;;8353144;28;20044;-83
2022/11/09 17:29:40;;;;;;;7.00;4.50;;;10.50;99.90;;;;;;8347820;28;20028;-84
2022/11/09 17:33:41;;;;;;;9.02;6.32;;;10.60;99.90;;;;;;8342135;28;20030;-83
2022/11/09 17:37:41;;;;;;;11.30;7.75;;;10.40;99.90;;;;;;8341473;28;20032;-84
2022/11/09 17:41:42;;;;;;;75.05;48.00;;;10.20;99.90;;;;;;8355900;28;20025;-84
2022/11/09 17:45:42;;;;;;;6.38;4.53;;;10.30;99.90;;;;;;8334295;28;20060;-84
2022/11/09 17:49:43;;;;;;;6.03;4.05;;;10.50;99.90;;;;;;8320717;28;20033;-84
2022/11/09 17:53:44;;;;;;;9.30;5.68;;;10.50;99.90;;;;;;8329062;28;20771;-84
2022/11/09 17:57:45;;;;;;;6.40;3.83;;;10.30;99.90;;;;;;8359149;28;20400;-84
2022/11/09 18:01:45;;;;;;;5.78;3.95;;;10.40;99.90;;;;;;8332173;28;20029;-84
2022/11/09 18:05:46;;;;;;;8.88;5.90;;;10.50;99.90;;;;;;8342932;28;20032;-84
2022/11/09 18:09:47;;;;;;;7.47;4.82;;;10.40;99.90;;;;;;8327321;28;20616;-84
2022/11/09 18:13:48;;;;;;;7.90;5.28;;;10.60;99.90;;;;;;8345126;28;20041;-84
2022/11/09 18:17:49;;;;;;;11.93;7.28;;;10.40;99.90;;;;;;8335109;28;20029;-84
2022/11/09 18:21:49;;;;;;;11.25;7.93;;;10.60;99.90;;;;;;8336739;28;20079;-85
2022/11/09 18:25:57;;;;;;;8.88;6.40;;;10.50;99.90;;;;;;8326920;28;20439;-85
2022/11/09 18:29:58;;;;;;;10.68;6.50;;;10.70;99.90;;;;;;8326320;28;20032;-85
2022/11/09 18:33:58;;;;;;;9.00;5.78;;;10.60;99.90;;;;;;8337769;28;20033;-84
2022/11/09 18:37:59;;;;;;;10.93;6.88;;;10.60;99.90;;;;;;8350016;28;20603;-85
2022/11/09 18:42:00;;;;;;;8.60;6.15;;;10.60;99.90;;;;;;8351350;28;20033;-85
2022/11/09 18:46:03;;;;;;;9.27;6.57;;;10.50;99.90;;;;;;8354988;28;20117;-84
2022/11/09 18:50:05;;;;;;;7.97;6.05;;;10.40;99.90;;;;;;8331548;28;20026;-85
2022/11/09 18:54:05;;;;;;;9.00;5.97;;;10.60;99.90;;;;;;8354285;28;20658;-84
2022/11/09 18:58:06;;;;;;;11.38;7.68;;;10.50;99.90;;;;;;8348484;28;20086;-84
2022/11/09 19:02:10;;;;;;;8.98;6.78;;;10.60;99.90;;;;;;8353406;28;20068;-85
2022/11/09 19:06:13;;;;;;;9.52;7.47;;;10.50;99.90;;;;;;8351132;28;20028;-85
2022/11/09 19:10:15;;;;;;;10.15;7.32;;;10.60;99.90;;;;;;8340703;28;20041;-85
2022/11/09 19:14:15;;;;;;;9.77;7.43;;;10.60;99.90;;;;;;8348817;28;20116;-85
2022/11/09 19:18:16;;;;;;;9.20;6.93;;;10.60;99.90;;;;;;8357924;28;20029;-84
2022/11/09 19:22:17;;;;;;;9.13;6.95;;;10.70;99.90;;;;;;8355982;28;20032;-84
2022/11/09 19:26:19;;;;;;;11.25;7.20;;;10.70;99.90;;;;;;8356505;28;20546;-85
2022/11/09 19:30:24;;;;;;;9.25;6.78;;;10.60;99.90;;;;;;8344268;28;20021;-85
2022/11/09 19:34:24;;;;;;;9.73;6.72;;;10.60;99.90;;;;;;8348180;28;20025;-84
2022/11/09 19:38:25;;;;;;;9.63;6.72;;;10.70;99.90;;;;;;8347743;28;20037;-85
2022/11/09 19:42:25;;;;;;;8.65;6.78;;;10.60;99.90;;;;;;8353793;28;20040;-85
2022/11/09 19:46:33;;;;;;;9.35;7.75;;;10.50;99.90;;;;;;8329866;28;20033;-85
2022/11/09 19:50:34;;;;;;;13.32;6.63;;;10.60;99.90;;;;;;8333880;28;20072;-85
2022/11/09 19:54:35;;;;;;;14.95;11.05;;;10.70;99.90;;;;;;8334863;28;20033;-85
2022/11/09 19:58:36;;;;;;;11.93;9.02;;;10.60;99.90;;;;;;8339019;28;20047;-85
2022/11/09 20:02:37;;;;;;;9.85;7.05;;;10.60;99.90;;;;;;8349883;28;20034;-85
2022/11/09 20:06:38;;;;;;;9.40;7.43;;;10.50;99.90;;;;;;8340132;28;20036;-85
2022/11/09 20:10:39;;;;;;;29.95;15.43;;;10.50;99.90;;;;;;8350404;28;20041;-85
2022/11/09 20:14:40;;;;;;;12.27;8.55;;;10.40;99.90;;;;;;8340721;28;20513;-84
2022/11/09 20:18:41;;;;;;;12.27;8.13;;;10.40;99.90;;;;;;8350752;28;20029;-84
2022/11/09 20:22:42;;;;;;;10.32;7.22;;;10.60;99.90;;;;;;8327090;28;20037;-85
2022/11/09 20:26:43;;;;;;;10.00;6.82;;;10.60;99.90;;;;;;8355337;28;20116;-85
2022/11/09 20:30:46;;;;;;;10.85;7.20;;;10.50;99.90;;;;;;8338761;28;20576;-85
2022/11/09 20:34:48;;;;;;;10.23;7.53;;;10.40;99.90;;;;;;8354620;28;20055;-84
2022/11/09 20:38:48;;;;;;;9.30;7.22;;;10.40;99.90;;;;;;8341845;28;20032;-84
2022/11/09 20:42:49;;;;;;;9.15;7.38;;;10.40;99.90;;;;;;8345621;28;20025;-84
2022/11/09 20:46:50;;;;;;;11.13;7.85;;;10.40;99.90;;;;;;8353997;28;20578;-84
2022/11/09 20:50:50;;;;;;;10.85;7.95;;;10.20;99.90;;;;;;8354965;28;20154;-85
2022/11/09 20:54:51;;;;;;;9.85;7.82;;;10.10;99.90;;;;;;8350047;28;20067;-85
2022/11/09 20:58:51;;;;;;;11.85;8.48;;;10.10;99.90;;;;;;8343570;28;20017;-85
2022/11/09 21:02:52;;;;;;;11.10;7.82;;;10.20;99.90;;;;;;8354496;28;20047;-84
2022/11/09 21:06:52;;;;;;;11.10;7.95;;;10.10;99.90;;;;;;8368552;28;20052;-84
2022/11/09 21:11:00;;;;;;;12.00;7.80;;;10.20;99.90;;;;;;8342690;28;20056;-85
2022/11/09 21:15:01;;;;;;;11.63;8.30;;;10.40;99.90;;;;;;8344019;28;20076;-85
2022/11/09 21:19:02;;;;;;;10.30;7.07;;;10.20;99.90;;;;;;8332454;28;20025;-85
2022/11/09 21:31:47;;;;;;;12.40;8.45;;;10.30;99.90;;;;;;8360649;28;20043;-84